sensor_id;sensor_type;location;lat;lon;timestamp;P1;durP1;ratioP1;P2;durP2;ratioP2
18447;SDS011;9353;50.956;6.920;2022-07-23T00:00:13;16.07;;;14.50;;
18447;SDS011;9353;50.956;6.920;2022-07-23T00:02:41;17.77;;;15.87;;
18447;SDS011;9353;50.956;6.920;2022-07-23T00:05:08;17.07;;;15.63;;
18447;SDS011;9353;50.956;6.920;2022-07-23T00:07:35;15.43;;;14.07;;
18447;SDS011;9353;50.956;6.920;2022-07-23T00:10:03;16.67;;;14.90;;
18447;SDS011;9353;50.956;6.920;2022-07-23T00:12:30;17.57;;;16.03;;
18447;SDS011;9353;50.956;6.920;2022-07-23T00:14:57;19.70;;;17.60;;
18447;SDS011;9353;50.956;6.920;2022-07-23T00:17:26;19.73;;;17.70;;
18447;SDS011;9353;50.956;6.920;2022-07-23T00:19:53;28.10;;;18.30;;
18447;SDS011;9353;50.956;6.920;2022-07-23T00:22:20;24.43;;;20.50;;
18447;SDS011;9353;50.956;6.920;2022-07-23T00:24:47;19.10;;;17.13;;
18447;SDS011;9353;50.956;6.920;2022-07-23T00:27:14;22.77;;;18.53;;
18447;SDS011;9353;50.956;6.920;2022-07-23T00:29:41;18.83;;;17.00;;
18447;SDS011;9353;50.956;6.920;2022-07-23T00:32:08;21.40;;;18.00;;
18447;SDS011;9353;50.956;6.920;2022-07-23T00:34:37;24.70;;;18.77;;
18447;SDS011;9353;50.956;6.920;2022-07-23T00:37:04;21.33;;;18.10;;
18447;SDS011;9353;50.956;6.920;2022-07-23T00:39:31;20.30;;;17.50;;
18447;SDS011;9353;50.956;6.920;2022-07-23T00:41:58;20.13;;;17.60;;
18447;SDS011;9353;50.956;6.920;2022-07-23T00:44:26;18.53;;;16.73;;
18447;SDS011;9353;50.956;6.920;2022-07-23T00:46:54;17.10;;;15.40;;
18447;SDS011;9353;50.956;6.920;2022-07-23T00:49:21;20.60;;;16.60;;
18447;SDS011;9353;50.956;6.920;2022-07-23T00:51:50;17.87;;;16.13;;
18447;SDS011;9353;50.956;6.920;2022-07-23T00:54:18;17.10;;;15.60;;
18447;SDS011;9353;50.956;6.920;2022-07-23T00:56:45;17.83;;;16.07;;
18447;SDS011;9353;50.956;6.920;2022-07-23T00:59:12;18.37;;;16.37;;
18447;SDS011;9353;50.956;6.920;2022-07-23T01:01:40;18.07;;;16.30;;
18447;SDS011;9353;50.956;6.920;2022-07-23T01:04:08;23.03;;;17.40;;
18447;SDS011;9353;50.956;6.920;2022-07-23T01:06:36;20.17;;;17.03;;
18447;SDS011;9353;50.956;6.920;2022-07-23T01:09:05;18.23;;;16.63;;
18447;SDS011;9353;50.956;6.920;2022-07-23T01:11:32;17.77;;;15.27;;
18447;SDS011;9353;50.956;6.920;2022-07-23T01:14:07;15.60;;;13.87;;
18447;SDS011;9353;50.956;6.920;2022-07-23T01:16:34;15.60;;;14.10;;
18447;SDS011;9353;50.956;6.920;2022-07-23T01:19:01;13.83;;;12.63;;
18447;SDS011;9353;50.956;6.920;2022-07-23T01:21:29;14.73;;;13.27;;
18447;SDS011;9353;50.956;6.920;2022-07-23T01:23:58;14.67;;;13.13;;
18447;SDS011;9353;50.956;6.920;2022-07-23T01:26:25;14.43;;;13.33;;
18447;SDS011;9353;50.956;6.920;2022-07-23T01:28:52;13.87;;;12.53;;
18447;SDS011;9353;50.956;6.920;2022-07-23T01:31:19;15.80;;;14.17;;
18447;SDS011;9353;50.956;6.920;2022-07-23T01:33:46;15.43;;;14.07;;
18447;SDS011;9353;50.956;6.920;2022-07-23T01:36:13;14.70;;;13.40;;
18447;SDS011;9353;50.956;6.920;2022-07-23T01:38:41;15.13;;;13.93;;
18447;SDS011;9353;50.956;6.920;2022-07-23T01:41:09;16.60;;;15.00;;
18447;SDS011;9353;50.956;6.920;2022-07-23T01:43:36;15.00;;;13.57;;
18447;SDS011;9353;50.956;6.920;2022-07-23T01:46:03;14.30;;;12.97;;
18447;SDS011;9353;50.956;6.920;2022-07-23T01:48:30;14.13;;;12.93;;
18447;SDS011;9353;50.956;6.920;2022-07-23T01:50:58;14.07;;;12.90;;
18447;SDS011;9353;50.956;6.920;2022-07-23T01:53:25;15.40;;;13.43;;
18447;SDS011;9353;50.956;6.920;2022-07-23T01:55:52;14.83;;;13.43;;
18447;SDS011;9353;50.956;6.920;2022-07-23T01:58:20;14.53;;;13.33;;
18447;SDS011;9353;50.956;6.920;2022-07-23T02:00:47;13.87;;;12.67;;
18447;SDS011;9353;50.956;6.920;2022-07-23T02:03:14;15.20;;;13.83;;
18447;SDS011;9353;50.956;6.920;2022-07-23T02:05:41;16.07;;;14.57;;
18447;SDS011;9353;50.956;6.920;2022-07-23T02:08:09;14.20;;;12.87;;
18447;SDS011;9353;50.956;6.920;2022-07-23T02:10:36;16.30;;;14.83;;
18447;SDS011;9353;50.956;6.920;2022-07-23T02:13:03;16.07;;;14.50;;
18447;SDS011;9353;50.956;6.920;2022-07-23T02:15:31;15.90;;;14.27;;
18447;SDS011;9353;50.956;6.920;2022-07-23T02:17:59;16.30;;;14.83;;
18447;SDS011;9353;50.956;6.920;2022-07-23T02:20:26;15.93;;;14.27;;
18447;SDS011;9353;50.956;6.920;2022-07-23T02:22:53;16.20;;;14.60;;
18447;SDS011;9353;50.956;6.920;2022-07-23T02:25:20;17.23;;;15.47;;
18447;SDS011;9353;50.956;6.920;2022-07-23T02:27:47;16.10;;;14.60;;
18447;SDS011;9353;50.956;6.920;2022-07-23T02:30:14;17.10;;;15.40;;
18447;SDS011;9353;50.956;6.920;2022-07-23T02:32:43;16.23;;;14.73;;
18447;SDS011;9353;50.956;6.920;2022-07-23T02:35:10;17.10;;;15.33;;
18447;SDS011;9353;50.956;6.920;2022-07-23T02:37:37;19.00;;;16.17;;
18447;SDS011;9353;50.956;6.920;2022-07-23T02:40:04;17.97;;;16.47;;
18447;SDS011;9353;50.956;6.920;2022-07-23T02:42:31;18.77;;;16.77;;
18447;SDS011;9353;50.956;6.920;2022-07-23T02:44:59;18.50;;;16.60;;
18447;SDS011;9353;50.956;6.920;2022-07-23T02:47:26;18.67;;;16.77;;
18447;SDS011;9353;50.956;6.920;2022-07-23T02:49:54;16.90;;;15.40;;
18447;SDS011;9353;50.956;6.920;2022-07-23T02:52:21;18.60;;;16.70;;
18447;SDS011;9353;50.956;6.920;2022-07-23T02:54:49;18.53;;;16.57;;
18447;SDS011;9353;50.956;6.920;2022-07-23T02:57:16;19.67;;;17.03;;
18447;SDS011;9353;50.956;6.920;2022-07-23T02:59:43;19.70;;;17.83;;
18447;SDS011;9353;50.956;6.920;2022-07-23T03:02:10;18.13;;;16.40;;
18447;SDS011;9353;50.956;6.920;2022-07-23T03:04:37;19.20;;;16.17;;
18447;SDS011;9353;50.956;6.920;2022-07-23T03:07:08;17.73;;;15.93;;
18447;SDS011;9353;50.956;6.920;2022-07-23T03:09:35;19.83;;;17.20;;
18447;SDS011;9353;50.956;6.920;2022-07-23T03:12:02;21.43;;;17.60;;
18447;SDS011;9353;50.956;6.920;2022-07-23T03:14:30;19.33;;;17.30;;
18447;SDS011;9353;50.956;6.920;2022-07-23T03:16:57;19.73;;;17.17;;
18447;SDS011;9353;50.956;6.920;2022-07-23T03:19:25;19.33;;;17.33;;
18447;SDS011;9353;50.956;6.920;2022-07-23T03:21:52;19.73;;;17.73;;
18447;SDS011;9353;50.956;6.920;2022-07-23T03:24:20;20.23;;;17.17;;
18447;SDS011;9353;50.956;6.920;2022-07-23T03:26:48;19.27;;;16.50;;
18447;SDS011;9353;50.956;6.920;2022-07-23T03:29:15;21.03;;;17.67;;
18447;SDS011;9353;50.956;6.920;2022-07-23T03:31:43;19.77;;;17.67;;
18447;SDS011;9353;50.956;6.920;2022-07-23T03:34:10;21.83;;;17.90;;
18447;SDS011;9353;50.956;6.920;2022-07-23T03:36:37;19.70;;;17.67;;
18447;SDS011;9353;50.956;6.920;2022-07-23T03:39:04;22.53;;;17.90;;
18447;SDS011;9353;50.956;6.920;2022-07-23T03:41:33;23.67;;;18.23;;
18447;SDS011;9353;50.956;6.920;2022-07-23T03:44:00;24.47;;;19.47;;
18447;SDS011;9353;50.956;6.920;2022-07-23T03:46:27;20.47;;;17.70;;
18447;SDS011;9353;50.956;6.920;2022-07-23T03:48:54;24.53;;;19.33;;
18447;SDS011;9353;50.956;6.920;2022-07-23T03:51:21;20.67;;;18.07;;
18447;SDS011;9353;50.956;6.920;2022-07-23T03:53:48;23.03;;;19.27;;
18447;SDS011;9353;50.956;6.920;2022-07-23T03:56:15;24.43;;;19.13;;
18447;SDS011;9353;50.956;6.920;2022-07-23T03:58:43;22.63;;;19.57;;
18447;SDS011;9353;50.956;6.920;2022-07-23T04:01:10;26.23;;;19.30;;
18447;SDS011;9353;50.956;6.920;2022-07-23T04:03:38;28.83;;;19.83;;
18447;SDS011;9353;50.956;6.920;2022-07-23T04:06:05;25.20;;;19.60;;
18447;SDS011;9353;50.956;6.920;2022-07-23T04:08:32;23.67;;;19.97;;
18447;SDS011;9353;50.956;6.920;2022-07-23T04:10:59;22.10;;;19.27;;
18447;SDS011;9353;50.956;6.920;2022-07-23T04:13:27;23.10;;;19.23;;
18447;SDS011;9353;50.956;6.920;2022-07-23T04:15:55;24.70;;;20.47;;
18447;SDS011;9353;50.956;6.920;2022-07-23T04:18:22;27.07;;;21.00;;
18447;SDS011;9353;50.956;6.920;2022-07-23T04:20:50;27.30;;;20.57;;
18447;SDS011;9353;50.956;6.920;2022-07-23T04:23:17;23.77;;;20.33;;
18447;SDS011;9353;50.956;6.920;2022-07-23T04:25:44;24.53;;;20.47;;
18447;SDS011;9353;50.956;6.920;2022-07-23T04:28:11;24.60;;;19.70;;
18447;SDS011;9353;50.956;6.920;2022-07-23T04:30:39;25.30;;;20.27;;
18447;SDS011;9353;50.956;6.920;2022-07-23T04:33:07;28.63;;;21.40;;
18447;SDS011;9353;50.956;6.920;2022-07-23T04:35:34;22.37;;;19.73;;
18447;SDS011;9353;50.956;6.920;2022-07-23T04:38:01;26.27;;;21.07;;
18447;SDS011;9353;50.956;6.920;2022-07-23T04:40:29;26.73;;;21.07;;
18447;SDS011;9353;50.956;6.920;2022-07-23T04:42:56;27.73;;;20.40;;
18447;SDS011;9353;50.956;6.920;2022-07-23T04:45:23;30.63;;;22.90;;
18447;SDS011;9353;50.956;6.920;2022-07-23T04:47:50;28.77;;;21.53;;
18447;SDS011;9353;50.956;6.920;2022-07-23T04:50:19;26.00;;;21.13;;
18447;SDS011;9353;50.956;6.920;2022-07-23T04:52:47;27.73;;;22.33;;
18447;SDS011;9353;50.956;6.920;2022-07-23T04:55:14;28.23;;;21.33;;
18447;SDS011;9353;50.956;6.920;2022-07-23T04:57:41;33.07;;;22.17;;
18447;SDS011;9353;50.956;6.920;2022-07-23T05:00:09;35.93;;;23.87;;
18447;SDS011;9353;50.956;6.920;2022-07-23T05:02:36;30.50;;;22.50;;
18447;SDS011;9353;50.956;6.920;2022-07-23T05:05:04;28.17;;;23.07;;
18447;SDS011;9353;50.956;6.920;2022-07-23T05:07:32;30.37;;;22.50;;
18447;SDS011;9353;50.956;6.920;2022-07-23T05:09:59;28.97;;;21.37;;
18447;SDS011;9353;50.956;6.920;2022-07-23T05:12:26;25.43;;;20.20;;
18447;SDS011;9353;50.956;6.920;2022-07-23T05:14:53;29.03;;;22.13;;
18447;SDS011;9353;50.956;6.920;2022-07-23T05:17:21;28.27;;;21.10;;
18447;SDS011;9353;50.956;6.920;2022-07-23T05:19:48;33.03;;;22.20;;
18447;SDS011;9353;50.956;6.920;2022-07-23T05:22:15;31.07;;;21.53;;
18447;SDS011;9353;50.956;6.920;2022-07-23T05:24:43;25.07;;;19.87;;
18447;SDS011;9353;50.956;6.920;2022-07-23T05:27:10;28.53;;;22.20;;
18447;SDS011;9353;50.956;6.920;2022-07-23T05:29:37;30.43;;;22.07;;
18447;SDS011;9353;50.956;6.920;2022-07-23T05:32:05;33.73;;;22.97;;
18447;SDS011;9353;50.956;6.920;2022-07-23T05:34:32;25.63;;;20.20;;
18447;SDS011;9353;50.956;6.920;2022-07-23T05:36:59;25.30;;;19.67;;
18447;SDS011;9353;50.956;6.920;2022-07-23T05:39:26;26.33;;;20.50;;
18447;SDS011;9353;50.956;6.920;2022-07-23T05:41:54;27.63;;;21.67;;
18447;SDS011;9353;50.956;6.920;2022-07-23T05:44:22;28.53;;;20.87;;
18447;SDS011;9353;50.956;6.920;2022-07-23T05:46:49;29.27;;;21.43;;
18447;SDS011;9353;50.956;6.920;2022-07-23T05:49:16;29.17;;;21.13;;
18447;SDS011;9353;50.956;6.920;2022-07-23T05:51:43;31.13;;;20.30;;
18447;SDS011;9353;50.956;6.920;2022-07-23T05:54:10;27.13;;;20.53;;
18447;SDS011;9353;50.956;6.920;2022-07-23T05:56:37;25.00;;;19.60;;
18447;SDS011;9353;50.956;6.920;2022-07-23T05:59:05;30.63;;;20.70;;
18447;SDS011;9353;50.956;6.920;2022-07-23T06:01:33;23.80;;;20.07;;
18447;SDS011;9353;50.956;6.920;2022-07-23T06:04:00;28.00;;;21.23;;
18447;SDS011;9353;50.956;6.920;2022-07-23T06:06:27;27.57;;;20.33;;
18447;SDS011;9353;50.956;6.920;2022-07-23T06:08:54;25.90;;;19.77;;
18447;SDS011;9353;50.956;6.920;2022-07-23T06:11:21;26.47;;;20.33;;
18447;SDS011;9353;50.956;6.920;2022-07-23T06:13:48;30.77;;;20.23;;
18447;SDS011;9353;50.956;6.920;2022-07-23T06:16:17;26.43;;;20.50;;
18447;SDS011;9353;50.956;6.920;2022-07-23T06:18:44;24.53;;;19.03;;
18447;SDS011;9353;50.956;6.920;2022-07-23T06:21:11;25.77;;;19.93;;
18447;SDS011;9353;50.956;6.920;2022-07-23T06:23:38;22.97;;;18.60;;
18447;SDS011;9353;50.956;6.920;2022-07-23T06:26:05;25.33;;;19.00;;
18447;SDS011;9353;50.956;6.920;2022-07-23T06:28:32;26.67;;;18.83;;
18447;SDS011;9353;50.956;6.920;2022-07-23T06:30:59;30.03;;;19.10;;
18447;SDS011;9353;50.956;6.920;2022-07-23T06:33:28;22.90;;;18.37;;
18447;SDS011;9353;50.956;6.920;2022-07-23T06:35:55;24.53;;;17.90;;
18447;SDS011;9353;50.956;6.920;2022-07-23T06:38:22;23.80;;;17.87;;
18447;SDS011;9353;50.956;6.920;2022-07-23T06:40:49;24.30;;;18.37;;
18447;SDS011;9353;50.956;6.920;2022-07-23T06:43:16;19.47;;;17.27;;
18447;SDS011;9353;50.956;6.920;2022-07-23T06:45:43;24.13;;;19.50;;
18447;SDS011;9353;50.956;6.920;2022-07-23T06:48:10;23.63;;;18.50;;
18447;SDS011;9353;50.956;6.920;2022-07-23T06:50:39;22.07;;;18.33;;
18447;SDS011;9353;50.956;6.920;2022-07-23T06:53:06;18.80;;;16.70;;
18447;SDS011;9353;50.956;6.920;2022-07-23T06:55:33;25.07;;;18.17;;
18447;SDS011;9353;50.956;6.920;2022-07-23T06:58:03;19.00;;;15.53;;
18447;SDS011;9353;50.956;6.920;2022-07-23T07:00:30;19.33;;;17.07;;
18447;SDS011;9353;50.956;6.920;2022-07-23T07:02:57;21.67;;;16.07;;
18447;SDS011;9353;50.956;6.920;2022-07-23T07:05:25;19.17;;;16.17;;
18447;SDS011;9353;50.956;6.920;2022-07-23T07:07:53;22.17;;;17.60;;
18447;SDS011;9353;50.956;6.920;2022-07-23T07:10:20;18.30;;;15.70;;
18447;SDS011;9353;50.956;6.920;2022-07-23T07:12:48;19.57;;;16.53;;
18447;SDS011;9353;50.956;6.920;2022-07-23T07:15:15;20.87;;;16.43;;
18447;SDS011;9353;50.956;6.920;2022-07-23T07:17:42;17.20;;;15.20;;
18447;SDS011;9353;50.956;6.920;2022-07-23T07:20:09;19.17;;;15.93;;
18447;SDS011;9353;50.956;6.920;2022-07-23T07:22:37;17.13;;;15.53;;
18447;SDS011;9353;50.956;6.920;2022-07-23T07:25:06;17.30;;;14.27;;
18447;SDS011;9353;50.956;6.920;2022-07-23T07:27:33;16.50;;;15.07;;
18447;SDS011;9353;50.956;6.920;2022-07-23T07:30:00;14.33;;;12.93;;
18447;SDS011;9353;50.956;6.920;2022-07-23T07:32:27;13.97;;;12.77;;
18447;SDS011;9353;50.956;6.920;2022-07-23T07:34:54;14.00;;;12.77;;
18447;SDS011;9353;50.956;6.920;2022-07-23T07:37:21;13.80;;;12.03;;
18447;SDS011;9353;50.956;6.920;2022-07-23T07:39:49;13.63;;;12.17;;
18447;SDS011;9353;50.956;6.920;2022-07-23T07:42:17;15.27;;;12.57;;
18447;SDS011;9353;50.956;6.920;2022-07-23T07:44:44;13.93;;;12.77;;
18447;SDS011;9353;50.956;6.920;2022-07-23T07:47:11;13.93;;;12.57;;
18447;SDS011;9353;50.956;6.920;2022-07-23T07:49:40;14.43;;;12.93;;
18447;SDS011;9353;50.956;6.920;2022-07-23T07:52:07;12.57;;;11.43;;
18447;SDS011;9353;50.956;6.920;2022-07-23T07:54:34;13.27;;;12.17;;
18447;SDS011;9353;50.956;6.920;2022-07-23T07:57:01;12.33;;;11.23;;
18447;SDS011;9353;50.956;6.920;2022-07-23T07:59:30;11.93;;;10.70;;
18447;SDS011;9353;50.956;6.920;2022-07-23T08:01:57;11.97;;;10.87;;
18447;SDS011;9353;50.956;6.920;2022-07-23T08:04:24;12.17;;;11.07;;
18447;SDS011;9353;50.956;6.920;2022-07-23T08:06:51;15.23;;;11.77;;
18447;SDS011;9353;50.956;6.920;2022-07-23T08:09:18;13.20;;;11.90;;
18447;SDS011;9353;50.956;6.920;2022-07-23T08:11:45;13.57;;;12.23;;
18447;SDS011;9353;50.956;6.920;2022-07-23T08:14:12;11.97;;;11.13;;
18447;SDS011;9353;50.956;6.920;2022-07-23T08:16:41;15.00;;;13.07;;
18447;SDS011;9353;50.956;6.920;2022-07-23T08:19:08;14.13;;;12.87;;
18447;SDS011;9353;50.956;6.920;2022-07-23T08:21:35;15.67;;;14.07;;
18447;SDS011;9353;50.956;6.920;2022-07-23T08:24:02;15.00;;;13.60;;
18447;SDS011;9353;50.956;6.920;2022-07-23T08:26:29;14.30;;;13.07;;
18447;SDS011;9353;50.956;6.920;2022-07-23T08:28:56;13.40;;;11.93;;
18447;SDS011;9353;50.956;6.920;2022-07-23T08:31:24;14.17;;;13.20;;
18447;SDS011;9353;50.956;6.920;2022-07-23T08:33:52;15.40;;;13.93;;
18447;SDS011;9353;50.956;6.920;2022-07-23T08:36:20;15.13;;;13.93;;
18447;SDS011;9353;50.956;6.920;2022-07-23T08:38:47;16.30;;;14.70;;
18447;SDS011;9353;50.956;6.920;2022-07-23T08:41:14;16.33;;;14.93;;
18447;SDS011;9353;50.956;6.920;2022-07-23T08:43:41;17.83;;;16.33;;
18447;SDS011;9353;50.956;6.920;2022-07-23T08:46:09;18.03;;;16.40;;
18447;SDS011;9353;50.956;6.920;2022-07-23T08:48:36;16.60;;;13.97;;
18447;SDS011;9353;50.956;6.920;2022-07-23T08:51:05;17.27;;;15.77;;
18447;SDS011;9353;50.956;6.920;2022-07-23T08:53:32;18.60;;;16.97;;
18447;SDS011;9353;50.956;6.920;2022-07-23T08:56:01;20.63;;;18.70;;
18447;SDS011;9353;50.956;6.920;2022-07-23T08:58:29;17.60;;;16.13;;
18447;SDS011;9353;50.956;6.920;2022-07-23T09:00:56;21.03;;;19.03;;
18447;SDS011;9353;50.956;6.920;2022-07-23T09:03:24;19.73;;;17.73;;
18447;SDS011;9353;50.956;6.920;2022-07-23T09:05:52;16.67;;;15.40;;
18447;SDS011;9353;50.956;6.920;2022-07-23T09:08:22;21.37;;;16.07;;
18447;SDS011;9353;50.956;6.920;2022-07-23T09:10:51;19.53;;;17.73;;
18447;SDS011;9353;50.956;6.920;2022-07-23T09:13:28;19.93;;;17.93;;
18447;SDS011;9353;50.956;6.920;2022-07-23T09:15:57;20.03;;;18.30;;
18447;SDS011;9353;50.956;6.920;2022-07-23T09:18:28;21.43;;;19.13;;
18447;SDS011;9353;50.956;6.920;2022-07-23T09:21:05;18.80;;;17.23;;
18447;SDS011;9353;50.956;6.920;2022-07-23T09:23:37;18.10;;;16.70;;
18447;SDS011;9353;50.956;6.920;2022-07-23T09:26:22;18.00;;;16.50;;
18447;SDS011;9353;50.956;6.920;2022-07-23T09:28:51;18.63;;;17.07;;
18447;SDS011;9353;50.956;6.920;2022-07-23T09:31:18;21.33;;;19.27;;
18447;SDS011;9353;50.956;6.920;2022-07-23T09:33:46;22.47;;;20.40;;
18447;SDS011;9353;50.956;6.920;2022-07-23T09:36:13;23.70;;;21.50;;
18447;SDS011;9353;50.956;6.920;2022-07-23T09:38:48;20.50;;;18.80;;
18447;SDS011;9353;50.956;6.920;2022-07-23T09:41:16;20.83;;;18.90;;
18447;SDS011;9353;50.956;6.920;2022-07-23T09:43:43;18.70;;;17.30;;
18447;SDS011;9353;50.956;6.920;2022-07-23T09:46:17;20.30;;;18.60;;
18447;SDS011;9353;50.956;6.920;2022-07-23T09:48:45;19.70;;;17.57;;
18447;SDS011;9353;50.956;6.920;2022-07-23T09:51:12;17.67;;;16.07;;
18447;SDS011;9353;50.956;6.920;2022-07-23T09:53:40;17.07;;;15.60;;
18447;SDS011;9353;50.956;6.920;2022-07-23T09:56:09;16.87;;;15.40;;
18447;SDS011;9353;50.956;6.920;2022-07-23T09:58:38;15.33;;;14.13;;
18447;SDS011;9353;50.956;6.920;2022-07-23T10:01:15;15.43;;;14.13;;
18447;SDS011;9353;50.956;6.920;2022-07-23T10:03:42;14.90;;;13.60;;
18447;SDS011;9353;50.956;6.920;2022-07-23T10:06:10;15.97;;;14.77;;
18447;SDS011;9353;50.956;6.920;2022-07-23T10:08:39;14.43;;;13.27;;
18447;SDS011;9353;50.956;6.920;2022-07-23T10:11:08;13.13;;;11.83;;
18447;SDS011;9353;50.956;6.920;2022-07-23T10:13:36;13.40;;;12.00;;
18447;SDS011;9353;50.956;6.920;2022-07-23T10:16:18;13.83;;;12.73;;
18447;SDS011;9353;50.956;6.920;2022-07-23T10:18:45;13.33;;;12.10;;
18447;SDS011;9353;50.956;6.920;2022-07-23T10:21:13;12.23;;;11.07;;
18447;SDS011;9353;50.956;6.920;2022-07-23T10:23:45;12.00;;;10.87;;
18447;SDS011;9353;50.956;6.920;2022-07-23T10:26:17;11.60;;;10.77;;
18447;SDS011;9353;50.956;6.920;2022-07-23T10:28:50;11.83;;;11.07;;
18447;SDS011;9353;50.956;6.920;2022-07-23T10:31:26;14.27;;;13.37;;
18447;SDS011;9353;50.956;6.920;2022-07-23T10:33:56;13.17;;;12.07;;
18447;SDS011;9353;50.956;6.920;2022-07-23T10:36:28;12.10;;;11.40;;
18447;SDS011;9353;50.956;6.920;2022-07-23T10:38:57;10.50;;;9.80;;
18447;SDS011;9353;50.956;6.920;2022-07-23T10:41:33;9.73;;;8.87;;
18447;SDS011;9353;50.956;6.920;2022-07-23T10:44:08;10.13;;;9.60;;
18447;SDS011;9353;50.956;6.920;2022-07-23T10:46:35;9.30;;;8.73;;
18447;SDS011;9353;50.956;6.920;2022-07-23T10:52:16;9.20;;;8.37;;
18447;SDS011;9353;50.956;6.920;2022-07-23T10:54:44;9.13;;;8.43;;
18447;SDS011;9353;50.956;6.920;2022-07-23T10:57:13;9.57;;;8.93;;
18447;SDS011;9353;50.956;6.920;2022-07-23T11:02:27;9.85;;;9.25;;
18447;SDS011;9353;50.956;6.920;2022-07-23T11:04:58;9.40;;;8.77;;
18447;SDS011;9353;50.956;6.920;2022-07-23T11:07:26;10.43;;;9.90;;
18447;SDS011;9353;50.956;6.920;2022-07-23T11:09:54;9.43;;;8.82;;
18447;SDS011;9353;50.956;6.920;2022-07-23T11:12:35;7.95;;;7.55;;
18447;SDS011;9353;50.956;6.920;2022-07-23T11:15:03;7.10;;;6.75;;
18447;SDS011;9353;50.956;6.920;2022-07-23T11:17:31;7.53;;;6.90;;
18447;SDS011;9353;50.956;6.920;2022-07-23T11:20:17;7.05;;;6.65;;
18447;SDS011;9353;50.956;6.920;2022-07-23T11:22:48;6.13;;;5.70;;
18447;SDS011;9353;50.956;6.920;2022-07-23T11:25:28;6.45;;;6.13;;
18447;SDS011;9353;50.956;6.920;2022-07-23T11:28:07;7.43;;;7.03;;
18447;SDS011;9353;50.956;6.920;2022-07-23T11:30:38;6.85;;;6.45;;
18447;SDS011;9353;50.956;6.920;2022-07-23T11:33:16;7.03;;;6.63;;
18447;SDS011;9353;50.956;6.920;2022-07-23T11:35:44;10.43;;;9.73;;
18447;SDS011;9353;50.956;6.920;2022-07-23T11:38:12;8.23;;;7.72;;
18447;SDS011;9353;50.956;6.920;2022-07-23T11:40:40;7.85;;;7.45;;
18447;SDS011;9353;50.956;6.920;2022-07-23T11:43:09;8.05;;;7.55;;
18447;SDS011;9353;50.956;6.920;2022-07-23T11:45:37;7.45;;;7.03;;
18447;SDS011;9353;50.956;6.920;2022-07-23T11:48:05;6.95;;;6.55;;
18447;SDS011;9353;50.956;6.920;2022-07-23T11:50:32;6.72;;;6.32;;
18447;SDS011;9353;50.956;6.920;2022-07-23T11:53:00;6.32;;;6.03;;
18447;SDS011;9353;50.956;6.920;2022-07-23T11:55:27;6.40;;;6.00;;
18447;SDS011;9353;50.956;6.920;2022-07-23T11:57:54;7.95;;;7.47;;
18447;SDS011;9353;50.956;6.920;2022-07-23T12:00:24;7.60;;;7.10;;
18447;SDS011;9353;50.956;6.920;2022-07-23T12:02:52;8.35;;;7.82;;
18447;SDS011;9353;50.956;6.920;2022-07-23T12:05:20;5.85;;;5.55;;
18447;SDS011;9353;50.956;6.920;2022-07-23T12:07:47;5.57;;;5.18;;
18447;SDS011;9353;50.956;6.920;2022-07-23T12:10:16;6.15;;;5.63;;
18447;SDS011;9353;50.956;6.920;2022-07-23T12:12:44;6.63;;;6.22;;
18447;SDS011;9353;50.956;6.920;2022-07-23T12:15:13;6.45;;;5.97;;
18447;SDS011;9353;50.956;6.920;2022-07-23T12:17:42;6.28;;;5.97;;
18447;SDS011;9353;50.956;6.920;2022-07-23T12:20:11;4.88;;;4.57;;
18447;SDS011;9353;50.956;6.920;2022-07-23T12:22:39;4.28;;;3.97;;
18447;SDS011;9353;50.956;6.920;2022-07-23T12:25:09;5.00;;;4.50;;
18447;SDS011;9353;50.956;6.920;2022-07-23T12:27:37;4.68;;;4.32;;
18447;SDS011;9353;50.956;6.920;2022-07-23T12:32:48;3.92;;;3.72;;
18447;SDS011;9353;50.956;6.920;2022-07-23T12:35:15;4.43;;;4.13;;
18447;SDS011;9353;50.956;6.920;2022-07-23T12:37:43;3.75;;;3.58;;
18447;SDS011;9353;50.956;6.920;2022-07-23T12:40:27;3.80;;;3.50;;
18447;SDS011;9353;50.956;6.920;2022-07-23T12:42:56;4.50;;;4.10;;
18447;SDS011;9353;50.956;6.920;2022-07-23T12:45:23;3.90;;;3.70;;
18447;SDS011;9353;50.956;6.920;2022-07-23T12:47:53;4.05;;;3.85;;
18447;SDS011;9353;50.956;6.920;2022-07-23T12:50:31;3.72;;;3.50;;
18447;SDS011;9353;50.956;6.920;2022-07-23T12:53:02;2.92;;;2.83;;
18447;SDS011;9353;50.956;6.920;2022-07-23T12:55:29;3.28;;;3.08;;
18447;SDS011;9353;50.956;6.920;2022-07-23T12:58:02;3.47;;;3.17;;
18447;SDS011;9353;50.956;6.920;2022-07-23T13:00:29;3.53;;;3.33;;
18447;SDS011;9353;50.956;6.920;2022-07-23T13:02:58;3.60;;;3.50;;
18447;SDS011;9353;50.956;6.920;2022-07-23T13:05:25;3.50;;;3.30;;
18447;SDS011;9353;50.956;6.920;2022-07-23T13:07:52;3.35;;;3.05;;
18447;SDS011;9353;50.956;6.920;2022-07-23T13:10:19;3.15;;;2.95;;
18447;SDS011;9353;50.956;6.920;2022-07-23T13:12:46;3.13;;;3.03;;
18447;SDS011;9353;50.956;6.920;2022-07-23T13:15:13;3.40;;;3.20;;
18447;SDS011;9353;50.956;6.920;2022-07-23T13:17:40;2.92;;;2.72;;
18447;SDS011;9353;50.956;6.920;2022-07-23T13:20:11;2.50;;;2.40;;
18447;SDS011;9353;50.956;6.920;2022-07-23T13:22:38;2.88;;;2.70;;
18447;SDS011;9353;50.956;6.920;2022-07-23T13:25:05;3.00;;;2.65;;
18447;SDS011;9353;50.956;6.920;2022-07-23T13:27:33;2.97;;;2.83;;
18447;SDS011;9353;50.956;6.920;2022-07-23T13:30:00;2.47;;;2.38;;
18447;SDS011;9353;50.956;6.920;2022-07-23T13:32:27;2.92;;;2.72;;
18447;SDS011;9353;50.956;6.920;2022-07-23T13:34:54;2.85;;;2.50;;
18447;SDS011;9353;50.956;6.920;2022-07-23T13:37:23;2.83;;;2.63;;
18447;SDS011;9353;50.956;6.920;2022-07-23T13:39:51;2.65;;;2.55;;
18447;SDS011;9353;50.956;6.920;2022-07-23T13:42:18;2.60;;;2.50;;
18447;SDS011;9353;50.956;6.920;2022-07-23T13:44:45;2.63;;;2.42;;
18447;SDS011;9353;50.956;6.920;2022-07-23T13:47:12;2.95;;;2.55;;
18447;SDS011;9353;50.956;6.920;2022-07-23T13:49:39;2.40;;;2.20;;
18447;SDS011;9353;50.956;6.920;2022-07-23T13:52:06;2.65;;;2.45;;
18447;SDS011;9353;50.956;6.920;2022-07-23T13:54:35;2.70;;;2.47;;
18447;SDS011;9353;50.956;6.920;2022-07-23T13:57:02;2.28;;;2.17;;
18447;SDS011;9353;50.956;6.920;2022-07-23T13:59:29;2.53;;;2.20;;
18447;SDS011;9353;50.956;6.920;2022-07-23T14:01:56;2.38;;;2.28;;
18447;SDS011;9353;50.956;6.920;2022-07-23T14:04:23;3.78;;;2.25;;
18447;SDS011;9353;50.956;6.920;2022-07-23T14:06:50;2.47;;;2.38;;
18447;SDS011;9353;50.956;6.920;2022-07-23T14:09:17;2.88;;;2.70;;
18447;SDS011;9353;50.956;6.920;2022-07-23T14:11:46;3.08;;;2.92;;
18447;SDS011;9353;50.956;6.920;2022-07-23T14:14:13;3.80;;;3.55;;
18447;SDS011;9353;50.956;6.920;2022-07-23T14:16:40;2.97;;;2.88;;
18447;SDS011;9353;50.956;6.920;2022-07-23T14:19:07;3.42;;;3.22;;
18447;SDS011;9353;50.956;6.920;2022-07-23T14:21:34;3.13;;;2.92;;
18447;SDS011;9353;50.956;6.920;2022-07-23T14:24:02;3.10;;;2.90;;
18447;SDS011;9353;50.956;6.920;2022-07-23T14:26:29;3.25;;;3.15;;
18447;SDS011;9353;50.956;6.920;2022-07-23T14:28:57;2.83;;;2.70;;
18447;SDS011;9353;50.956;6.920;2022-07-23T14:31:24;2.80;;;2.60;;
18447;SDS011;9353;50.956;6.920;2022-07-23T14:33:51;2.90;;;2.70;;
18447;SDS011;9353;50.956;6.920;2022-07-23T14:36:18;3.30;;;3.10;;
18447;SDS011;9353;50.956;6.920;2022-07-23T14:38:45;2.90;;;2.80;;
18447;SDS011;9353;50.956;6.920;2022-07-23T14:41:12;3.15;;;2.95;;
18447;SDS011;9353;50.956;6.920;2022-07-23T14:43:40;3.60;;;3.40;;
18447;SDS011;9353;50.956;6.920;2022-07-23T14:46:08;2.80;;;2.70;;
18447;SDS011;9353;50.956;6.920;2022-07-23T14:48:35;3.10;;;2.90;;
18447;SDS011;9353;50.956;6.920;2022-07-23T14:51:03;3.10;;;3.00;;
18447;SDS011;9353;50.956;6.920;2022-07-23T14:53:30;3.10;;;2.90;;